Time;durP1;ratioP1;P1;durP2;ratioP2;P2;SDS_P1;SDS_P2;PMS_P1;PMS_P2;Temp;Humidity;BMP_temperature;BMP_pressure;BME280_temperature;BME280_humidity;BME280_pressure;Samples;Min_cycle;Max_cycle;Signal;HPM_P1;HPM_P2
2021/10/01 00:00:19;;;;;;;3.55;1.25;;;12.30;99.90;;;;;;5011114;28;20133;-70
2021/10/01 00:02:45;;;;;;;2.30;1.20;;;12.30;99.90;;;;;;5009375;28;20033;-72
2021/10/01 00:05:11;;;;;;;2.67;1.00;;;12.30;99.90;;;;;;5010305;28;20441;-70
2021/10/01 00:07:36;;;;;;;3.40;1.20;;;12.10;99.90;;;;;;5009641;28;20459;-70
2021/10/01 00:10:03;;;;;;;4.20;1.00;;;12.20;99.90;;;;;;5009864;28;20030;-70
2021/10/01 00:12:28;;;;;;;3.53;1.05;;;12.10;99.90;;;;;;5010100;28;20036;-70
2021/10/01 00:14:56;;;;;;;3.97;1.50;;;12.20;99.90;;;;;;5009324;28;20021;-71
2021/10/01 00:17:22;;;;;;;3.50;0.93;;;12.10;99.90;;;;;;5011525;28;20030;-70
2021/10/01 00:19:48;;;;;;;4.25;0.85;;;12.00;99.90;;;;;;5009544;28;20442;-71
2021/10/01 00:22:14;;;;;;;2.42;1.08;;;12.10;99.90;;;;;;5010230;28;20030;-71
2021/10/01 00:24:39;;;;;;;3.80;1.13;;;12.00;99.90;;;;;;5010821;28;20097;-71
2021/10/01 00:27:09;;;;;;;6.38;1.63;;;12.00;99.90;;;;;;5011607;28;20034;-70
2021/10/01 00:29:36;;;;;;;4.03;1.40;;;11.90;99.90;;;;;;5009313;28;20041;-71
2021/10/01 00:32:02;;;;;;;5.45;1.30;;;11.80;99.90;;;;;;5011365;28;20029;-72
2021/10/01 00:34:27;;;;;;;5.25;1.45;;;11.70;99.90;;;;;;5010026;28;20072;-71
2021/10/01 00:36:53;;;;;;;6.78;2.78;;;11.70;99.90;;;;;;5009185;28;20121;-71
2021/10/01 00:39:18;;;;;;;3.22;1.30;;;11.70;99.90;;;;;;5010093;28;20124;-70
2021/10/01 00:41:44;;;;;;;5.43;1.73;;;11.70;99.90;;;;;;5009418;28;20026;-71
2021/10/01 00:44:10;;;;;;;6.50;1.42;;;11.60;99.90;;;;;;5009889;28;20489;-71
2021/10/01 00:46:36;;;;;;;8.30;1.98;;;11.60;99.90;;;;;;5009250;28;20075;-71
2021/10/01 00:49:02;;;;;;;5.90;1.60;;;11.60;99.90;;;;;;5009475;28;20116;-70
2021/10/01 00:51:28;;;;;;;5.53;1.02;;;11.50;99.90;;;;;;5009676;28;20025;-71
2021/10/01 00:53:54;;;;;;;8.07;1.40;;;11.40;99.90;;;;;;5010419;28;20460;-70
2021/10/01 00:56:21;;;;;;;6.10;1.60;;;11.40;99.90;;;;;;5010510;28;20109;-70
2021/10/01 00:58:47;;;;;;;8.50;1.38;;;11.40;99.90;;;;;;5010853;28;20103;-70
2021/10/01 01:01:13;;;;;;;6.82;1.48;;;11.30;99.90;;;;;;5009107;28;20116;-70
2021/10/01 01:04:01;;;;;;;6.00;1.52;;;11.50;99.90;;;;;;5010144;28;20548;-70
2021/10/01 01:06:52;;;;;;;5.70;1.30;;;11.40;99.90;;;;;;5009482;28;20033;-70
2021/10/01 01:09:31;;;;;;;7.55;1.33;;;11.50;99.90;;;;;;5009496;28;20033;-70
2021/10/01 01:12:09;;;;;;;8.75;1.60;;;11.40;99.90;;;;;;5010358;28;20030;-70
2021/10/01 01:14:52;;;;;;;5.80;1.52;;;11.50;99.90;;;;;;5009883;28;20022;-71
2021/10/01 01:17:26;;;;;;;4.25;1.17;;;11.40;99.90;;;;;;5009614;28;20022;-70
2021/10/01 01:20:10;;;;;;;6.72;2.85;;;11.40;99.90;;;;;;5010129;28;20038;-70
2021/10/01 01:23:00;;;;;;;21.98;2.45;;;11.30;99.90;;;;;;5010378;28;20030;-72
2021/10/01 01:25:44;;;;;;;7.85;2.55;;;11.30;99.90;;;;;;5009410;28;20097;-71
2021/10/01 01:28:34;;;;;;;8.43;1.95;;;11.20;99.90;;;;;;5011372;28;20034;-71
2021/10/01 01:31:29;;;;;;;5.78;2.42;;;11.30;99.90;;;;;;5014068;28;20104;-72
2021/10/01 01:33:58;;;;;;;6.63;2.05;;;11.20;99.90;;;;;;4997494;28;20301;-70
2021/10/01 01:36:24;;;;;;;5.65;1.48;;;11.30;99.90;;;;;;5012923;28;20026;-70
2021/10/01 01:38:53;;;;;;;3.97;1.73;;;11.40;99.90;;;;;;5013076;28;20041;-70
2021/10/01 01:41:21;;;;;;;4.25;1.70;;;11.30;99.90;;;;;;5013911;28;20026;-70
2021/10/01 01:43:49;;;;;;;6.38;1.45;;;11.30;99.90;;;;;;5013368;28;20030;-70
2021/10/01 01:46:15;;;;;;;5.93;1.23;;;11.30;99.90;;;;;;5013856;28;20041;-70
2021/10/01 01:48:43;;;;;;;3.53;1.05;;;11.30;99.90;;;;;;5011785;28;20476;-70
2021/10/01 01:51:11;;;;;;;4.95;1.08;;;11.30;99.90;;;;;;5012559;28;20037;-70
2021/10/01 01:53:38;;;;;;;3.63;1.33;;;11.20;99.90;;;;;;5011811;28;20033;-71
2021/10/01 01:56:05;;;;;;;3.95;1.45;;;11.20;99.90;;;;;;5013440;28;20125;-70
2021/10/01 01:58:33;;;;;;;6.03;2.08;;;11.10;99.90;;;;;;5013262;28;20036;-70
2021/10/01 02:00:59;;;;;;;2.97;1.60;;;11.00;99.90;;;;;;5011362;28;20058;-71
2021/10/01 02:03:25;;;;;;;2.45;0.95;;;11.00;99.90;;;;;;5013507;28;20048;-69
2021/10/01 02:05:51;;;;;;;2.85;1.23;;;11.00;99.90;;;;;;5012918;28;20030;-69
2021/10/01 02:08:18;;;;;;;2.22;1.00;;;11.00;99.90;;;;;;5011965;28;20037;-70
2021/10/01 02:10:45;;;;;;;3.15;1.45;;;11.00;99.90;;;;;;5011445;28;20030;-70
2021/10/01 02:13:12;;;;;;;4.18;1.40;;;11.00;99.90;;;;;;5012091;28;20040;-70
2021/10/01 02:15:40;;;;;;;6.03;1.27;;;11.00;99.90;;;;;;5012839;28;20089;-70
2021/10/01 02:18:07;;;;;;;2.15;1.10;;;10.90;99.90;;;;;;5011946;28;20076;-70
2021/10/01 02:20:35;;;;;;;4.20;1.30;;;10.90;99.90;;;;;;5012962;28;20037;-69
2021/10/01 02:23:02;;;;;;;1.45;0.93;;;10.90;99.90;;;;;;5011379;28;20022;-70
2021/10/01 02:28:32;;;;;;;2.17;1.23;;;10.90;99.90;;;;;;5012958;28;20049;-70
2021/10/01 02:31:00;;;;;;;4.20;1.40;;;10.90;99.90;;;;;;5011258;28;20299;-70
2021/10/01 02:33:40;;;;;;;2.88;0.95;;;10.80;99.90;;;;;;5012686;28;20096;-70
2021/10/01 02:36:06;;;;;;;3.20;1.42;;;10.80;99.90;;;;;;4996314;28;20141;-69
2021/10/01 02:38:32;;;;;;;7.05;1.75;;;10.70;99.90;;;;;;5011559;28;20459;-70
2021/10/01 02:40:57;;;;;;;6.90;1.52;;;10.90;99.90;;;;;;5010790;28;20064;-70
2021/10/01 02:43:23;;;;;;;8.25;1.70;;;10.70;99.90;;;;;;5011579;28;20033;-69
2021/10/01 02:45:48;;;;;;;2.55;1.30;;;10.60;99.90;;;;;;5010900;28;20090;-69
2021/10/01 02:48:14;;;;;;;4.68;1.35;;;10.50;99.90;;;;;;5012530;28;20026;-69
2021/10/01 02:50:42;;;;;;;6.00;1.67;;;10.50;99.90;;;;;;5012330;28;20041;-70
2021/10/01 02:53:21;;;;;;;3.03;1.30;;;10.60;99.90;;;;;;5011257;28;20049;-69
2021/10/01 02:56:02;;;;;;;3.80;0.93;;;10.50;99.90;;;;;;5011722;28;20033;-69
2021/10/01 02:58:40;;;;;;;5.43;1.70;;;10.50;99.90;;;;;;5011194;28;20333;-70
2021/10/01 03:01:10;;;;;;;3.53;1.70;;;10.50;99.90;;;;;;5012439;28;20059;-70
2021/10/01 03:03:42;;;;;;;4.03;1.70;;;10.60;99.90;;;;;;5012384;28;20080;-69
2021/10/01 03:06:08;;;;;;;6.22;1.48;;;10.50;99.90;;;;;;5010879;28;20030;-69
2021/10/01 03:08:35;;;;;;;16.38;2.38;;;10.60;99.90;;;;;;5010952;28;20419;-70
2021/10/01 03:11:02;;;;;;;5.25;1.30;;;10.60;99.90;;;;;;5010421;28;20034;-70
2021/10/01 03:13:30;;;;;;;9.60;2.58;;;10.40;99.90;;;;;;5012138;28;20029;-70
2021/10/01 03:16:00;;;;;;;5.03;1.30;;;10.50;99.90;;;;;;5010394;28;20395;-70
2021/10/01 03:18:28;;;;;;;4.38;1.55;;;10.40;99.90;;;;;;5011017;28;20054;-70
2021/10/01 03:20:56;;;;;;;3.25;1.50;;;10.40;99.90;;;;;;5010342;28;20129;-70
2021/10/01 03:23:23;;;;;;;4.63;1.30;;;10.30;99.90;;;;;;5010524;28;20025;-71
2021/10/01 03:25:51;;;;;;;6.78;2.22;;;10.20;99.90;;;;;;5010019;28;20134;-70
2021/10/01 03:28:18;;;;;;;2.20;1.13;;;10.30;99.90;;;;;;5010545;28;20395;-69
2021/10/01 03:30:46;;;;;;;4.75;1.55;;;10.30;99.90;;;;;;5009842;28;20036;-71
2021/10/01 03:33:11;;;;;;;3.50;1.38;;;10.30;99.90;;;;;;5010463;28;20100;-69
2021/10/01 03:35:40;;;;;;;4.93;1.50;;;10.30;99.90;;;;;;5010299;28;20054;-69
2021/10/01 03:38:08;;;;;;;18.00;2.40;;;10.30;99.90;;;;;;5010774;28;20391;-69
2021/10/01 03:40:34;;;;;;;7.20;1.95;;;10.30;99.90;;;;;;5011843;28;20132;-69
2021/10/01 03:43:00;;;;;;;6.72;1.73;;;10.40;99.90;;;;;;5009575;28;20116;-69
2021/10/01 03:45:26;;;;;;;7.47;1.58;;;10.30;99.90;;;;;;5010171;28;20428;-69
2021/10/01 03:47:52;;;;;;;2.90;1.42;;;10.30;99.90;;;;;;5009824;28;20022;-70
2021/10/01 03:50:18;;;;;;;3.38;1.73;;;10.30;99.90;;;;;;5010232;28;20061;-70
2021/10/01 03:52:44;;;;;;;4.38;1.70;;;10.20;99.90;;;;;;5008854;28;20084;-71
2021/10/01 03:55:14;;;;;;;5.85;1.77;;;10.30;99.90;;;;;;5009833;28;20121;-70
2021/10/01 03:57:40;;;;;;;6.03;1.90;;;10.10;99.90;;;;;;5011212;28;20498;-70
2021/10/01 04:00:06;;;;;;;4.20;1.90;;;10.10;99.90;;;;;;5010990;28;20034;-70
2021/10/01 04:02:32;;;;;;;4.97;1.70;;;10.20;99.90;;;;;;5011128;28;20034;-70
2021/10/01 04:04:58;;;;;;;4.88;1.77;;;10.20;99.90;;;;;;5010804;28;20101;-70
2021/10/01 04:07:23;;;;;;;3.88;1.80;;;10.30;99.90;;;;;;5010131;28;20072;-71
2021/10/01 04:09:49;;;;;;;4.93;2.20;;;10.30;99.90;;;;;;5009306;28;20386;-70
2021/10/01 04:12:15;;;;;;;3.08;1.40;;;10.20;99.90;;;;;;5009984;28;20494;-70
2021/10/01 04:14:41;;;;;;;3.38;1.60;;;10.30;99.90;;;;;;5009935;28;20530;-70
2021/10/01 04:17:07;;;;;;;3.03;1.38;;;10.20;99.90;;;;;;5010755;28;20045;-70
2021/10/01 04:19:32;;;;;;;3.03;1.50;;;10.20;99.90;;;;;;5009995;28;20030;-70
2021/10/01 04:21:58;;;;;;;5.82;1.58;;;10.10;99.90;;;;;;5010695;28;20029;-69
2021/10/01 04:24:24;;;;;;;3.75;1.25;;;10.10;99.90;;;;;;5009755;28;20490;-69
2021/10/01 04:26:49;;;;;;;5.60;1.63;;;10.10;99.90;;;;;;5009087;28;20439;-70
2021/10/01 04:29:15;;;;;;;4.22;1.85;;;10.10;99.90;;;;;;5010629;28;20033;-70
2021/10/01 04:31:41;;;;;;;5.30;2.22;;;10.00;99.90;;;;;;5011050;28;20041;-69
2021/10/01 04:34:07;;;;;;;6.90;1.75;;;10.00;99.90;;;;;;5010558;28;20030;-70
2021/10/01 04:36:34;;;;;;;5.95;2.08;;;10.00;99.90;;;;;;5010743;28;20022;-71
2021/10/01 04:39:00;;;;;;;6.68;2.03;;;10.00;99.90;;;;;;5008996;28;20038;-70
2021/10/01 04:41:27;;;;;;;3.58;1.65;;;10.00;99.90;;;;;;5009618;28;20030;-70
2021/10/01 04:43:54;;;;;;;3.85;2.15;;;9.80;99.90;;;;;;5010416;28;20061;-70
2021/10/01 04:46:20;;;;;;;5.05;1.50;;;9.80;99.90;;;;;;5010929;28;20026;-70
2021/10/01 04:48:46;;;;;;;5.43;1.70;;;9.80;99.90;;;;;;5011155;28;20060;-70
2021/10/01 04:51:12;;;;;;;7.15;1.77;;;9.80;99.90;;;;;;5011262;28;20077;-71
2021/10/01 04:53:38;;;;;;;5.22;1.88;;;9.80;99.90;;;;;;5009598;28;20053;-71
2021/10/01 04:56:04;;;;;;;5.20;1.70;;;9.80;99.90;;;;;;5010361;28;20117;-71
2021/10/01 04:58:29;;;;;;;6.88;1.90;;;9.90;99.90;;;;;;5009492;28;20026;-71
2021/10/01 05:00:55;;;;;;;4.40;2.13;;;9.80;99.90;;;;;;5008508;28;20507;-71
2021/10/01 05:03:21;;;;;;;4.85;2.08;;;9.70;99.90;;;;;;5010310;28;20435;-71
2021/10/01 05:05:47;;;;;;;5.20;1.70;;;9.70;99.90;;;;;;5014646;28;20105;-71
2021/10/01 05:08:12;;;;;;;4.82;2.20;;;9.80;99.90;;;;;;5012974;28;20026;-71
2021/10/01 05:10:38;;;;;;;7.43;2.00;;;9.80;99.90;;;;;;5013318;28;20403;-72
2021/10/01 05:13:04;;;;;;;9.55;2.20;;;9.80;99.90;;;;;;5012379;28;20045;-71
2021/10/01 05:15:30;;;;;;;5.93;1.63;;;9.70;99.90;;;;;;5014291;28;20026;-71
2021/10/01 05:17:58;;;;;;;4.65;1.98;;;9.60;99.90;;;;;;5012014;28;20026;-71
2021/10/01 05:20:24;;;;;;;4.68;1.67;;;9.70;99.90;;;;;;5013053;28;20030;-71
2021/10/01 05:22:49;;;;;;;10.15;1.92;;;9.70;99.90;;;;;;5012065;28;20025;-70
2021/10/01 05:25:16;;;;;;;7.10;2.33;;;9.70;99.90;;;;;;5014338;28;20380;-71
2021/10/01 05:27:42;;;;;;;5.43;1.55;;;9.70;99.90;;;;;;5012725;28;20359;-72
2021/10/01 05:30:09;;;;;;;9.20;4.30;;;9.70;99.90;;;;;;5011869;28;20030;-71
2021/10/01 05:32:35;;;;;;;7.40;2.05;;;9.60;99.90;;;;;;5011971;28;20053;-71
2021/10/01 05:35:02;;;;;;;6.03;1.98;;;9.50;99.90;;;;;;5011901;28;20446;-71
2021/10/01 05:37:28;;;;;;;8.43;3.00;;;9.60;99.90;;;;;;5012625;28;20066;-71
2021/10/01 05:39:54;;;;;;;8.90;2.50;;;9.60;99.90;;;;;;5012014;28;20076;-72
2021/10/01 05:42:20;;;;;;;7.93;3.45;;;9.70;99.90;;;;;;5011936;28;20121;-73
2021/10/01 05:44:46;;;;;;;6.47;2.03;;;9.70;99.90;;;;;;5012348;28;20116;-72
2021/10/01 05:47:12;;;;;;;12.30;2.53;;;9.90;99.90;;;;;;5010863;28;20042;-72
2021/10/01 05:49:39;;;;;;;8.40;2.20;;;9.80;99.90;;;;;;5011689;28;20474;-72
2021/10/01 05:52:38;;;;;;;9.48;2.08;;;9.70;99.90;;;;;;5011153;28;20044;-72
2021/10/01 05:55:06;;;;;;;9.95;2.42;;;9.70;99.90;;;;;;5010007;28;20069;-72
2021/10/01 05:57:32;;;;;;;5.63;2.17;;;9.70;99.90;;;;;;5010486;28;20033;-71
2021/10/01 05:59:58;;;;;;;5.55;2.33;;;9.70;99.90;;;;;;5009966;28;20129;-72
2021/10/01 06:02:23;;;;;;;8.43;2.40;;;9.60;99.90;;;;;;5010976;28;20145;-70
2021/10/01 06:04:52;;;;;;;6.30;1.90;;;9.60;99.90;;;;;;5010884;28;20034;-70
2021/10/01 06:07:18;;;;;;;8.27;2.22;;;9.70;99.90;;;;;;5010888;28;20030;-71
2021/10/01 06:09:45;;;;;;;6.43;2.03;;;9.70;99.90;;;;;;5010698;28;20042;-71
2021/10/01 06:12:12;;;;;;;10.55;2.60;;;9.80;99.90;;;;;;5009999;28;20072;-70
2021/10/01 06:14:39;;;;;;;14.20;2.00;;;9.80;99.90;;;;;;5009689;28;20034;-71
2021/10/01 06:17:05;;;;;;;4.10;1.77;;;9.70;99.90;;;;;;5009499;28;20507;-70
2021/10/01 06:19:33;;;;;;;4.85;1.58;;;9.70;99.90;;;;;;5010116;28;20403;-71
2021/10/01 06:22:02;;;;;;;8.43;1.85;;;9.90;99.90;;;;;;5009320;28;20073;-71
2021/10/01 06:24:28;;;;;;;10.90;2.50;;;10.00;99.90;;;;;;5010091;28;20436;-71
2021/10/01 06:26:54;;;;;;;10.85;2.70;;;10.10;99.90;;;;;;5010358;28;20055;-72
2021/10/01 06:29:19;;;;;;;6.85;2.38;;;10.30;99.90;;;;;;5011274;28;20061;-72
2021/10/01 06:31:46;;;;;;;5.22;2.08;;;10.50;99.90;;;;;;5011110;28;20072;-71
2021/10/01 06:34:12;;;;;;;10.18;2.13;;;10.70;99.90;;;;;;5012032;28;20034;-71
2021/10/01 06:36:38;;;;;;;4.35;2.33;;;11.10;99.90;;;;;;5011123;28;20467;-71
2021/10/01 06:39:05;;;;;;;6.18;2.10;;;11.50;99.90;;;;;;5011454;28;20099;-71
2021/10/01 06:41:32;;;;;;;4.78;2.03;;;11.70;99.90;;;;;;5011308;28;20030;-71
2021/10/01 06:44:00;;;;;;;8.20;2.30;;;11.80;99.90;;;;;;5010306;28;20317;-71
2021/10/01 06:46:36;;;;;;;9.73;2.35;;;11.90;99.90;;;;;;5010662;28;20066;-70
2021/10/01 06:52:02;;;;;;;6.65;2.20;;;12.10;99.90;;;;;;5012245;28;20026;-71
2021/10/01 07:39:08;;;;;;;11.98;2.85;;;14.80;99.90;;;;;;5011007;28;20128;-76
2021/10/01 08:19:38;;;;;;;4.85;2.30;;;14.60;98.90;;;;;;5003224;28;20103;-70
2021/10/01 08:22:03;;;;;;;3.58;2.00;;;15.40;98.50;;;;;;5000166;28;20021;-70
2021/10/01 08:24:31;;;;;;;9.48;2.33;;;15.70;98.10;;;;;;4999629;28;20109;-71
2021/10/01 08:26:58;;;;;;;4.00;1.67;;;15.70;97.60;;;;;;4997074;28;20030;-72
2021/10/01 08:29:24;;;;;;;5.18;1.85;;;15.20;97.90;;;;;;4997445;28;20136;-70
2021/10/01 08:31:50;;;;;;;7.00;1.95;;;15.30;98.30;;;;;;4995055;28;20117;-71
2021/10/01 08:34:18;;;;;;;4.63;2.03;;;15.40;97.80;;;;;;5009107;28;20112;-71
2021/10/01 08:36:45;;;;;;;7.63;1.77;;;15.70;97.50;;;;;;5010182;28;20105;-72
2021/10/01 08:39:11;;;;;;;5.07;2.55;;;16.00;97.10;;;;;;5012360;28;20454;-71
2021/10/01 08:41:38;;;;;;;7.18;2.38;;;16.50;96.70;;;;;;5014665;28;20029;-72
2021/10/01 08:44:05;;;;;;;5.75;2.55;;;16.90;96.50;;;;;;5009217;28;20026;-71
2021/10/01 08:46:32;;;;;;;8.48;2.47;;;17.20;95.70;;;;;;5010286;28;20101;-72
2021/10/01 08:49:04;;;;;;;7.60;1.80;;;17.00;95.60;;;;;;5010407;28;20034;-72
2021/10/01 08:51:30;;;;;;;6.10;2.50;;;17.00;96.00;;;;;;5009621;28;20038;-70
2021/10/01 08:53:57;;;;;;;2.47;1.70;;;16.70;96.30;;;;;;5012621;28;20030;-72
2021/10/01 08:56:25;;;;;;;3.70;1.85;;;16.90;95.80;;;;;;5012550;28;20022;-72
2021/10/01 08:58:50;;;;;;;6.00;1.80;;;17.20;96.00;;;;;;5012763;28;20056;-71
2021/10/01 09:01:16;;;;;;;4.35;1.95;;;17.70;95.50;;;;;;5013286;28;20099;-72
2021/10/01 09:03:45;;;;;;;8.48;3.00;;;18.00;94.80;;;;;;5014537;28;20037;-73
2021/10/01 09:06:11;;;;;;;18.25;2.70;;;18.10;94.50;;;;;;5011933;28;20083;-71
2021/10/01 09:09:04;;;;;;;8.02;1.90;;;18.50;93.70;;;;;;5012699;28;20055;-73
2021/10/01 09:11:34;;;;;;;7.72;2.67;;;18.00;94.20;;;;;;5013251;28;20040;-72
2021/10/01 09:14:10;;;;;;;4.53;2.13;;;18.10;94.00;;;;;;5012101;28;20537;-73
2021/10/01 09:16:38;;;;;;;8.50;2.42;;;18.30;93.90;;;;;;5013949;28;20125;-72
2021/10/01 09:19:06;;;;;;;3.38;1.80;;;18.40;93.50;;;;;;5013239;28;20037;-72
2021/10/01 09:21:44;;;;;;;5.13;1.80;;;18.20;93.60;;;;;;5012883;28;20077;-73
2021/10/01 09:24:13;;;;;;;5.47;2.28;;;18.40;93.40;;;;;;5011757;28;20041;-72
2021/10/01 09:26:49;;;;;;;8.93;1.80;;;18.60;93.10;;;;;;5012556;28;20030;-72
2021/10/01 09:29:26;;;;;;;6.72;2.03;;;18.80;92.80;;;;;;5011480;28;20041;-72
2021/10/01 09:31:53;;;;;;;4.35;1.70;;;19.10;93.30;;;;;;5013083;28;20034;-72
2021/10/01 09:34:22;;;;;;;4.72;1.30;;;18.70;96.50;;;;;;5011211;28;20416;-72
2021/10/01 09:36:59;;;;;;;3.42;1.30;;;18.50;97.00;;;;;;5013938;28;20033;-71
2021/10/01 09:39:30;;;;;;;5.07;1.83;;;18.60;96.90;;;;;;5012881;28;20033;-72
2021/10/01 09:41:59;;;;;;;8.02;1.70;;;18.80;96.60;;;;;;5012308;28;20030;-73
2021/10/01 09:44:30;;;;;;;6.20;1.60;;;18.80;96.20;;;;;;5012962;28;20030;-71
2021/10/01 09:46:56;;;;;;;3.78;1.52;;;18.90;95.80;;;;;;5011245;28;20029;-70
2021/10/01 09:49:33;;;;;;;5.10;1.92;;;18.30;97.00;;;;;;5010692;28;20090;-71
2021/10/01 09:52:00;;;;;;;3.72;1.75;;;18.70;97.00;;;;;;5008406;28;20030;-71
2021/10/01 09:54:28;;;;;;;4.45;1.65;;;18.70;97.10;;;;;;5011373;28;20030;-71
2021/10/01 09:57:05;;;;;;;4.75;1.55;;;19.20;96.50;;;;;;5012851;28;20029;-71
2021/10/01 09:59:34;;;;;;;6.15;1.27;;;19.50;95.30;;;;;;5011275;28;20139;-70
2021/10/01 10:02:11;;;;;;;3.17;1.35;;;20.00;94.00;;;;;;5011823;28;20100;-71
2021/10/01 10:04:53;;;;;;;4.88;1.58;;;19.80;93.60;;;;;;5011594;28;20029;-72
2021/10/01 10:07:25;;;;;;;3.13;1.90;;;20.30;93.80;;;;;;5010853;28;20022;-71
2021/10/01 10:09:53;;;;;;;2.63;1.42;;;20.10;93.30;;;;;;5011206;28;20100;-72
2021/10/01 10:12:35;;;;;;;4.78;1.50;;;20.40;92.30;;;;;;5011030;28;20095;-72
2021/10/01 10:15:05;;;;;;;5.68;1.35;;;21.00;92.10;;;;;;5011340;28;20117;-72
2021/10/01 10:17:31;;;;;;;5.70;1.45;;;20.70;88.20;;;;;;5011119;28;20029;-71
2021/10/01 10:19:59;;;;;;;3.75;1.15;;;20.80;87.90;;;;;;5012804;28;20033;-72
2021/10/01 10:22:27;;;;;;;5.07;1.75;;;21.00;87.60;;;;;;5011886;28;20022;-72
2021/10/01 10:24:54;;;;;;;7.45;1.20;;;21.30;88.40;;;;;;5011680;28;20801;-72
2021/10/01 10:27:22;;;;;;;3.60;1.02;;;21.30;87.20;;;;;;5011443;28;20072;-73
2021/10/01 10:29:48;;;;;;;4.22;1.20;;;21.30;86.20;;;;;;5010686;28;20045;-71
2021/10/01 10:32:15;;;;;;;3.75;1.40;;;20.80;85.20;;;;;;5005534;28;20084;-73
2021/10/01 10:34:49;;;;;;;2.00;0.88;;;20.80;85.40;;;;;;5011241;28;20467;-71
2021/10/01 10:37:16;;;;;;;9.73;1.50;;;21.00;85.70;;;;;;5004311;28;20456;-72
2021/10/01 10:39:48;;;;;;;4.90;1.55;;;20.60;83.90;;;;;;5001590;28;20042;-71
2021/10/01 10:42:16;;;;;;;3.63;1.02;;;20.60;84.30;;;;;;5009813;28;20161;-48
2021/10/01 10:44:56;;;;;;;5.13;1.42;;;21.00;84.50;;;;;;5008871;28;20100;-49
2021/10/01 10:47:46;;;;;;;2.67;1.10;;;21.20;83.70;;;;;;5010107;28;20025;-48
2021/10/01 10:50:26;;;;;;;5.43;1.23;;;21.20;82.40;;;;;;5006255;28;20104;-49
2021/10/01 10:53:12;;;;;;;3.33;0.80;;;21.10;85.30;;;;;;5009060;28;20104;-49
2021/10/01 10:55:40;;;;;;;5.78;1.23;;;21.20;83.30;;;;;;5008369;28;20030;-49
2021/10/01 10:58:24;;;;;;;3.95;0.85;;;21.60;83.40;;;;;;5007951;28;20522;-51
2021/10/01 11:00:58;;;;;;;4.18;1.13;;;21.90;81.00;;;;;;5003894;28;20162;-49
2021/10/01 11:03:27;;;;;;;3.55;1.58;;;21.80;82.60;;;;;;5007364;28;20198;-48
2021/10/01 11:06:18;;;;;;;2.60;1.13;;;21.80;80.80;;;;;;5009620;28;20022;-48
2021/10/01 11:08:49;;;;;;;2.77;0.73;;;21.30;82.50;;;;;;5010559;28;20022;-48
2021/10/01 11:11:32;;;;;;;4.00;1.35;;;21.40;82.50;;;;;;5009447;28;20030;-48
2021/10/01 11:14:22;;;;;;;3.88;0.95;;;21.90;81.70;;;;;;5011600;28;20029;-48
2021/10/01 11:16:53;;;;;;;5.53;1.55;;;22.30;79.90;;;;;;5008072;28;20109;-47
2021/10/01 11:19:38;;;;;;;1.45;0.90;;;22.40;79.70;;;;;;5007894;28;20068;-49
2021/10/01 11:22:36;;;;;;;2.72;1.10;;;21.90;79.20;;;;;;5008195;28;20038;-49
2021/10/01 11:25:17;;;;;;;4.25;1.20;;;22.50;78.90;;;;;;5007326;28;20131;-49
2021/10/01 11:27:49;;;;;;;2.70;1.00;;;21.60;79.60;;;;;;5009413;28;20052;-48
2021/10/01 11:30:15;;;;;;;3.10;0.90;;;22.10;79.70;;;;;;5009680;28;20124;-49
2021/10/01 11:32:40;;;;;;;7.70;0.82;;;21.50;79.70;;;;;;5006463;28;20481;-49
2021/10/01 11:35:07;;;;;;;3.95;0.88;;;22.30;79.10;;;;;;4986892;28;20027;-55
2021/10/01 11:37:41;;;;;;;5.07;0.98;;;22.60;76.90;;;;;;4988220;28;20030;-50
2021/10/01 11:40:19;;;;;;;4.85;0.80;;;22.40;76.80;;;;;;4987202;28;20084;-49
2021/10/01 11:42:48;;;;;;;3.17;0.90;;;22.80;78.10;;;;;;4990316;28;20030;-48
2021/10/01 11:45:27;;;;;;;2.38;0.70;;;23.30;76.60;;;;;;4988348;28;20038;-52
2021/10/01 11:47:55;;;;;;;8.38;1.15;;;23.20;75.50;;;;;;4989947;28;20080;-48
2021/10/01 11:50:34;;;;;;;9.73;1.83;;;23.50;75.00;;;;;;4988911;28;20034;-48
2021/10/01 11:53:02;;;;;;;2.58;1.02;;;23.10;76.50;;;;;;4989681;28;20027;-49
2021/10/01 11:55:34;;;;;;;2.60;0.90;;;23.00;75.90;;;;;;4987601;28;20105;-52
2021/10/01 11:58:02;;;;;;;3.67;0.80;;;23.00;75.50;;;;;;4988148;28;20040;-48
2021/10/01 12:00:28;;;;;;;5.57;1.00;;;23.00;75.80;;;;;;4988420;28;20061;-50
2021/10/01 12:02:54;;;;;;;2.97;0.60;;;22.60;76.10;;;;;;5008791;28;20034;-48
2021/10/01 12:05:32;;;;;;;6.47;0.80;;;22.70;76.30;;;;;;5009600;28;20113;-48
2021/10/01 12:08:02;;;;;;;6.03;0.90;;;22.30;76.10;;;;;;5009276;28;20136;-47
2021/10/01 12:10:31;;;;;;;2.00;0.80;;;22.40;75.30;;;;;;5008052;28;20111;-48
2021/10/01 12:13:01;;;;;;;8.10;0.90;;;22.30;75.70;;;;;;5008769;28;20026;-49
2021/10/01 12:15:51;;;;;;;3.35;0.90;;;22.50;74.40;;;;;;5008294;28;20828;-48
2021/10/01 12:18:42;;;;;;;3.08;0.82;;;22.90;74.50;;;;;;5008548;28;20418;-48
2021/10/01 12:21:15;;;;;;;3.22;0.85;;;23.70;74.60;;;;;;4989136;28;20031;-62
2021/10/01 12:24:04;;;;;;;3.60;0.65;;;23.90;72.90;;;;;;4990800;28;20483;-70
2021/10/01 12:26:34;;;;;;;3.58;0.90;;;23.70;72.90;;;;;;4975225;28;20144;-70
2021/10/01 12:29:06;;;;;;;3.13;0.88;;;23.10;74.10;;;;;;4989298;28;20515;-69
2021/10/01 12:31:43;;;;;;;8.10;1.85;;;23.20;73.70;;;;;;4988566;28;20400;-70
2021/10/01 12:34:21;;;;;;;2.65;0.80;;;24.10;74.30;;;;;;5007379;28;20034;-72
2021/10/01 12:36:53;;;;;;;4.10;0.82;;;23.70;72.80;;;;;;5006674;28;20029;-70
2021/10/01 12:39:22;;;;;;;9.98;1.95;;;24.10;73.30;;;;;;5006785;28;20056;-72
2021/10/01 12:41:55;;;;;;;3.30;1.05;;;24.50;71.30;;;;;;5006518;28;20232;-71
2021/10/01 12:44:21;;;;;;;4.30;0.85;;;24.00;70.70;;;;;;5004443;28;20018;-71
2021/10/01 12:46:50;;;;;;;2.15;0.43;;;23.50;70.00;;;;;;5007243;28;20025;-69
2021/10/01 12:49:27;;;;;;;3.22;0.95;;;23.50;72.10;;;;;;5006084;28;20030;-72
2021/10/01 12:52:09;;;;;;;6.28;1.80;;;23.90;70.00;;;;;;5008830;28;20034;-71
2021/10/01 12:54:45;;;;;;;4.43;0.70;;;24.10;68.70;;;;;;5005495;28;20030;-74
2021/10/01 12:57:22;;;;;;;4.40;0.70;;;24.30;69.60;;;;;;5007420;28;20038;-73
2021/10/01 13:00:06;;;;;;;1.80;0.93;;;25.20;69.00;;;;;;5003648;28;20050;-70
2021/10/01 13:03:02;;;;;;;1.95;0.50;;;25.00;67.90;;;;;;5012261;28;20054;-72
2021/10/01 13:05:39;;;;;;;3.95;0.90;;;25.20;66.80;;;;;;4951586;28;20270;-73
2021/10/01 13:08:25;;;;;;;5.00;0.85;;;24.20;68.40;;;;;;4950935;28;20026;-71
2021/10/01 13:10:57;;;;;;;1.80;0.68;;;24.40;67.70;;;;;;4927428;29;20118;-74
2021/10/01 13:13:28;;;;;;;4.97;0.93;;;24.90;67.10;;;;;;4899076;29;20096;-71
2021/10/01 13:16:22;;;;;;;3.40;0.73;;;25.00;66.20;;;;;;4898267;29;20067;-72
2021/10/01 13:19:03;;;;;;;1.58;0.77;;;25.20;66.50;;;;;;4914288;29;20067;-72
2021/10/01 13:21:29;;;;;;;3.47;0.80;;;24.50;67.10;;;;;;4913442;29;20048;-71
2021/10/01 13:24:00;;;;;;;4.32;1.42;;;23.80;68.60;;;;;;4909979;29;20079;-71
2021/10/01 13:26:29;;;;;;;2.58;0.80;;;23.20;69.60;;;;;;4908381;29;20453;-72
2021/10/01 13:29:00;;;;;;;2.70;0.60;;;23.40;69.90;;;;;;4917102;29;20043;-75
2021/10/01 13:31:26;;;;;;;2.88;0.73;;;24.20;69.60;;;;;;4916331;29;20040;-75
2021/10/01 13:33:53;;;;;;;4.47;1.08;;;24.30;69.10;;;;;;4917522;29;20048;-76
2021/10/01 13:36:19;;;;;;;1.52;0.88;;;24.00;70.40;;;;;;4901202;29;20031;-79
2021/10/01 13:38:46;;;;;;;4.68;1.25;;;23.40;73.50;;;;;;4916527;29;20139;-77
2021/10/01 13:41:14;;;;;;;4.68;0.73;;;23.80;72.40;;;;;;4901939;29;20040;-75
2021/10/01 13:43:41;;;;;;;6.97;0.75;;;23.70;71.80;;;;;;4928457;29;20032;-75
2021/10/01 13:46:10;;;;;;;10.05;0.85;;;24.30;73.10;;;;;;4914744;29;20449;-75
2021/10/01 13:48:36;;;;;;;3.40;0.80;;;24.10;70.60;;;;;;5002133;28;20132;-76
2021/10/01 13:51:02;;;;;;;3.55;0.55;;;23.90;71.20;;;;;;5009215;28;20034;-76
2021/10/01 13:53:28;;;;;;;0.95;0.43;;;24.10;70.00;;;;;;5008731;28;20040;-77
2021/10/01 13:55:54;;;;;;;1.90;0.75;;;24.10;70.00;;;;;;5010825;28;20466;-77
2021/10/01 13:58:20;;;;;;;4.15;0.63;;;24.10;67.30;;;;;;5008350;28;20100;-78
2021/10/01 14:00:47;;;;;;;5.05;1.35;;;23.60;69.10;;;;;;5011763;28;20554;-74
2021/10/01 14:03:13;;;;;;;2.67;0.70;;;23.20;68.20;;;;;;5009561;28;20109;-74
2021/10/01 14:05:39;;;;;;;4.00;0.75;;;23.20;67.60;;;;;;5008644;28;20041;-74
2021/10/01 14:08:05;;;;;;;3.92;0.55;;;23.20;62.80;;;;;;5010308;28;20037;-76
2021/10/01 14:10:34;;;;;;;1.70;0.80;;;23.00;61.80;;;;;;5010027;28;20124;-57
2021/10/01 14:13:00;;;;;;;3.22;0.68;;;23.10;65.60;;;;;;5009946;28;20026;-55
2021/10/01 14:15:31;;;;;;;4.13;0.98;;;22.90;65.60;;;;;;5010369;28;20514;-54
2021/10/01 14:17:58;;;;;;;3.33;0.70;;;22.60;74.20;;;;;;5010916;28;20026;-55
2021/10/01 14:20:27;;;;;;;17.10;2.30;;;22.70;67.00;;;;;;5010814;28;20030;-54
2021/10/01 14:22:53;;;;;;;3.53;0.50;;;22.80;78.40;;;;;;5010579;28;20033;-58
2021/10/01 14:25:21;;;;;;;4.38;0.82;;;23.00;64.90;;;;;;5010415;28;20133;-51
2021/10/01 14:27:47;;;;;;;34.28;2.47;;;22.70;75.60;;;;;;5010755;28;20085;-51
2021/10/01 14:30:15;;;;;;;5.70;0.85;;;22.90;77.40;;;;;;5009827;28;20038;-57